6OI9 weather

Red Roof Inns Heliport
Columbus, Ohio, United States

Public forecast

Using degrees Fahrenheit for public forecast. Weather courtesy of forecast.io.

METAR (pilot weather report)

Closest report is The Ohio State University Airport - Don Scott Field, 3.1 nm (5.7 km) NE. Retrieved 2019/05/19 13:53 UTC (17 minutes ago):

KOSU 191353Z 20013KT 10SM CLR 25/17 A2987 RMK AO2 SLP106 T02500172

TAF (pilot weather forecast)

Closest forecast is John Glenn Columbus International Airport, 11.3 nm (20.8 km) ESE. Retrieved 2019/05/19 12:22 UTC (2 hours ago):

TAF KCMH 191120Z 1912/2012 19012KT P6SM FEW150 SCT250 FM191400 20017G27KT P6SM SCT150 BKN250 FM191900 21021G40KT P6SM FEW050 BKN250 FM192000 21020G40KT P6SM VCSH BKN050 FM192300 22017G27KT P6SM -SHRA VCTS BKN050CB OVC100 FM200200 21014G23KT P6SM -SHRA OVC040 FM200600 24012KT P6SM BKN012